Time;durP1;ratioP1;P1;durP2;ratioP2;P2;SDS_P1;SDS_P2;PMS_P1;PMS_P2;Temp;Humidity;BMP_temperature;BMP_pressure;BME280_temperature;BME280_humidity;BME280_pressure;Samples;Min_cycle;Max_cycle;Signal;HPM_P1;HPM_P2
2024/04/06 00:00:51;;;;;;;;;;;;;;;;;;5057714;28;19997;-86
2024/04/06 00:03:17;;;;;;;;;;;;;;;;;;5055399;28;19973;-86
2024/04/06 00:05:47;;;;;;;;;;;;;;;;;;5059651;28;20396;-86
2024/04/06 00:08:12;;;;;;;;;;;;;;;;;;5053689;28;20043;-86
2024/04/06 00:10:43;;;;;;;;;;;;;;;;;;5042205;28;19993;-86
2024/04/06 00:13:08;;;;;;;;;;;;;;;;;;5054386;28;20497;-85
2024/04/06 00:15:35;;;;;;;;;;;;;;;;;;5052998;28;20012;-86
2024/04/06 00:18:01;;;;;;;;;;;;;;;;;;5043633;28;19980;-85
2024/04/06 00:20:40;;;;;;;;;;;;;;;;;;;;;
2024/04/06 00:23:10;;;;;;;;;;;;;;;;;;5055847;28;20071;-88
2024/04/06 00:25:41;;;;;;;;;;;;;;;;;;5063425;28;19981;-85
2024/04/06 00:28:11;;;;;;;;;;;;;;;;;;5063397;28;19983;-87
2024/04/06 00:30:40;;;;;;;;;;;;;;;;;;5061750;28;20000;-86
2024/04/06 00:33:13;;;;;;;;;;;;;;;;;;5060050;28;19995;-86
2024/04/06 00:35:39;;;;;;;;;;;;;;;;;;5061531;28;19983;-85
2024/04/06 00:38:06;;;;;;;;;;;;;;;;;;5061179;28;20403;-86
2024/04/06 00:40:32;;;;;;;;;;;;;;;;;;5053855;28;19996;-86
2024/04/06 00:42:59;;;;;;;;;;;;;;;;;;5060557;28;20460;-86
2024/04/06 00:45:25;;;;;;;;;;;;;;;;;;5059079;28;19980;-86
2024/04/06 00:47:52;;;;;;;;;;;;;;;;;;5058890;28;20019;-85
2024/04/06 00:50:21;;;;;;;;;;;;;;;;;;5054321;28;19996;-86
2024/04/06 00:52:48;;;;;;;;;;;;;;;;;;5057117;28;20444;-86
2024/04/06 00:55:20;;;;;;;;;;;;;;;;;;5049768;28;19980;-86
2024/04/06 00:57:47;;;;;;;;;;;;;;;;;;5050327;28;20026;-86
2024/04/06 01:00:13;;;;;;;;;;;;;;;;;;5051557;28;20027;-85
2024/04/06 01:02:40;;;;;;;;;;;;;;;;;;5059445;28;19972;-86
2024/04/06 01:05:06;;;;;;;;;;;;;;;;;;5060718;28;20002;-86
2024/04/06 01:07:33;;;;;;;;;;;;;;;;;;5057488;28;19980;-84
2024/04/06 01:09:59;;;;;;;;;;;;;;;;;;5053334;28;20031;-85
2024/04/06 01:15:08;;;;;;;;;;;;;;;;;;5059075;28;19971;-87
2024/04/06 01:17:37;;;;;;;;;;;;;;;;;;5060646;28;20129;-86
2024/04/06 01:20:06;;;;;;;;;;;;;;;;;;5054790;28;20002;-86
2024/04/06 01:22:32;;;;;;;;;;;;;;;;;;5055085;28;19991;-88
2024/04/06 01:24:59;;;;;;;;;;;;;;;;;;5066173;28;19976;-83
2024/04/06 01:27:25;;;;;;;;;;;;;;;;;;5063263;28;19986;-85
2024/04/06 01:29:52;;;;;;;;;;;;;;;;;;5064886;28;20003;-85
2024/04/06 01:32:18;;;;;;;;;;;;;;;;;;5064365;28;19979;-84
2024/04/06 01:34:45;;;;;;;;;;;;;;;;;;5055718;28;19982;-85
2024/04/06 01:37:11;;;;;;;;;;;;;;;;;;5062289;28;20075;-86
2024/04/06 01:39:38;;;;;;;;;;;;;;;;;;5056286;28;19995;-85
2024/04/06 01:42:04;;;;;;;;;;;;;;;;;;5066100;28;20074;-86
2024/04/06 01:44:31;;;;;;;;;;;;;;;;;;5058783;28;19979;-85
2024/04/06 01:46:58;;;;;;;;;;;;;;;;;;5065441;28;20067;-83
2024/04/06 01:49:24;;;;;;;;;;;;;;;;;;5059276;28;20015;-87
2024/04/06 01:51:51;;;;;;;;;;;;;;;;;;5065099;28;20014;-87
2024/04/06 01:54:18;;;;;;;;;;;;;;;;;;5065933;28;19979;-86
2024/04/06 01:56:45;;;;;;;;;;;;;;;;;;5066042;28;20011;-85
2024/04/06 01:59:12;;;;;;;;;;;;;;;;;;5067062;28;20004;-85
2024/04/06 02:01:38;;;;;;;;;;;;;;;;;;5065758;28;20039;-85
2024/04/06 02:04:05;;;;;;;;;;;;;;;;;;5064002;28;19987;-85
2024/04/06 02:06:31;;;;;;;;;;;;;;;;;;5065662;28;20038;-86
2024/04/06 02:08:58;;;;;;;;;;;;;;;;;;5068115;28;19992;-83
2024/04/06 02:11:23;;;;;;;;;;;;;;;;;;5069148;28;20075;-86
2024/04/06 02:13:50;;;;;;;;;;;;;;;;;;5060046;28;19976;-86
2024/04/06 02:16:16;;;;;;;;;;;;;;;;;;5068693;28;20077;-85
2024/04/06 02:18:43;;;;;;;;;;;;;;;;;;5068146;28;20002;-85
2024/04/06 02:21:09;;;;;;;;;;;;;;;;;;5066292;28;19991;-85
2024/04/06 02:23:36;;;;;;;;;;;;;;;;;;5069872;28;20355;-85
2024/04/06 02:26:02;;;;;;;;;;;;;;;;;;5061533;28;19986;-86
2024/04/06 02:28:29;;;;;;;;;;;;;;;;;;5069950;28;19976;-87
2024/04/06 02:30:55;;;;;;;;;;;;;;;;;;5068771;28;20060;-86
2024/04/06 02:33:22;;;;;;;;;;;;;;;;;;5070227;28;19980;-85
2024/04/06 02:35:48;;;;;;;;;;;;;;;;;;5070070;28;20071;-86
2024/04/06 02:38:15;;;;;;;;;;;;;;;;;;5069383;28;20355;-86
2024/04/06 02:40:41;;;;;;;;;;;;;;;;;;5060957;28;19992;-87
2024/04/06 02:43:08;;;;;;;;;;;;;;;;;;5065188;28;20036;-86
2024/04/06 02:45:34;;;;;;;;;;;;;;;;;;5066765;28;20055;-87
2024/04/06 02:48:01;;;;;;;;;;;;;;;;;;5061817;28;19979;-87
2024/04/06 02:50:27;;;;;;;;;;;;;;;;;;5070609;28;19996;-85
2024/04/06 02:52:54;;;;;;;;;;;;;;;;;;5071514;28;20039;-86
2024/04/06 02:55:20;;;;;;;;;;;;;;;;;;5071807;28;20010;-86
2024/04/06 02:57:47;;;;;;;;;;;;;;;;;;5070548;28;20005;-85
2024/04/06 03:00:13;;;;;;;;;;;;;;;;;;5070301;28;20042;-86
2024/04/06 03:02:40;;;;;;;;;;;;;;;;;;5072927;28;19972;-85
2024/04/06 03:05:06;;;;;;;;;;;;;;;;;;5074881;28;20014;-85
2024/04/06 03:07:33;;;;;;;;;;;;;;;;;;5073596;28;20235;-84
2024/04/06 03:09:59;;;;;;;;;;;;;;;;;;5074889;28;20030;-86
2024/04/06 03:12:26;;;;;;;;;;;;;;;;;;5075672;28;19972;-85
2024/04/06 03:14:53;;;;;;;;;;;;;;;;;;5076686;28;19974;-85
2024/04/06 03:17:20;;;;;;;;;;;;;;;;;;5074908;28;19976;-85
2024/04/06 03:19:47;;;;;;;;;;;;;;;;;;5064139;28;20002;-87
2024/04/06 03:22:13;;;;;;;;;;;;;;;;;;5061802;28;20066;-84
2024/04/06 03:24:40;;;;;;;;;;;;;;;;;;5054866;28;20003;-84
2024/04/06 03:27:06;;;;;;;;;;;;;;;;;;5053815;28;20495;-84
2024/04/06 03:29:33;;;;;;;;;;;;;;;;;;5062539;28;20014;-84
2024/04/06 03:31:59;;;;;;;;;;;;;;;;;;5061864;28;19977;-85
2024/04/06 03:34:26;;;;;;;;;;;;;;;;;;5062548;28;20051;-86
2024/04/06 03:36:52;;;;;;;;;;;;;;;;;;5059015;28;20070;-84
2024/04/06 03:39:19;;;;;;;;;;;;;;;;;;5059445;28;20406;-87
2024/04/06 03:41:46;;;;;;;;;;;;;;;;;;5062114;28;20532;-84
2024/04/06 03:44:13;;;;;;;;;;;;;;;;;;5061194;28;19979;-84
2024/04/06 03:46:39;;;;;;;;;;;;;;;;;;5060613;28;20014;-82
2024/04/06 03:49:06;;;;;;;;;;;;;;;;;;5056693;28;19999;-85
2024/04/06 03:51:32;;;;;;;;;;;;;;;;;;5057388;28;20078;-85
2024/04/06 03:53:59;;;;;;;;;;;;;;;;;;5060422;28;20023;-86
2024/04/06 03:56:25;;;;;;;;;;;;;;;;;;5060516;28;20050;-85
2024/04/06 03:58:52;;;;;;;;;;;;;;;;;;5062383;28;19983;-85
2024/04/06 04:01:18;;;;;;;;;;;;;;;;;;5061547;28;19991;-85
2024/04/06 04:03:45;;;;;;;;;;;;;;;;;;5061676;28;20444;-83
2024/04/06 04:06:11;;;;;;;;;;;;;;;;;;5060368;28;19990;-85
2024/04/06 04:08:38;;;;;;;;;;;;;;;;;;5058876;28;20011;-81
2024/04/06 04:11:04;;;;;;;;;;;;;;;;;;5060726;28;20071;-84
2024/04/06 04:13:31;;;;;;;;;;;;;;;;;;5058691;28;20015;-85
2024/04/06 04:15:58;;;;;;;;;;;;;;;;;;5056044;28;19980;-84
2024/04/06 04:18:25;;;;;;;;;;;;;;;;;;5057265;28;19976;-85
2024/04/06 04:20:51;;;;;;;;;;;;;;;;;;5062063;28;20059;-85
2024/04/06 04:23:17;;;;;;;;;;;;;;;;;;5062239;28;20022;-85
2024/04/06 04:25:43;;;;;;;;;;;;;;;;;;5061882;28;19980;-86
2024/04/06 04:28:10;;;;;;;;;;;;;;;;;;5061564;28;20427;-83
2024/04/06 04:30:36;;;;;;;;;;;;;;;;;;5060673;28;20090;-84
2024/04/06 04:33:03;;;;;;;;;;;;;;;;;;5058379;28;20015;-85
2024/04/06 04:35:29;;;;;;;;;;;;;;;;;;5050345;28;20066;-86
2024/04/06 04:37:56;;;;;;;;;;;;;;;;;;5055310;28;20038;-86
2024/04/06 04:40:22;;;;;;;;;;;;;;;;;;5055885;28;19994;-85
2024/04/06 04:42:49;;;;;;;;;;;;;;;;;;5058809;28;20412;-84
2024/04/06 04:45:15;;;;;;;;;;;;;;;;;;5059701;28;19979;-81
2024/04/06 04:47:42;;;;;;;;;;;;;;;;;;5051286;28;20511;-84
2024/04/06 04:50:09;;;;;;;;;;;;;;;;;;5058265;28;20456;-86
2024/04/06 04:52:35;;;;;;;;;;;;;;;;;;5058060;28;19976;-86
2024/04/06 04:55:02;;;;;;;;;;;;;;;;;;5060444;28;19990;-85
2024/04/06 04:57:29;;;;;;;;;;;;;;;;;;5045985;28;19978;-86
2024/04/06 04:59:57;;;;;;;;;;;;;;;;;;5058641;28;19992;-85
2024/04/06 05:02:23;;;;;;;;;;;;;;;;;;5059498;28;20408;-84
2024/04/06 05:04:50;;;;;;;;;;;;;;;;;;5058306;28;19975;-85
2024/04/06 05:07:16;;;;;;;;;;;;;;;;;;5057904;28;20508;-85
2024/04/06 05:09:43;;;;;;;;;;;;;;;;;;5054644;28;20031;-85
2024/04/06 05:12:09;;;;;;;;;;;;;;;;;;5056553;28;19976;-83
2024/04/06 05:14:36;;;;;;;;;;;;;;;;;;5059454;28;20432;-85
2024/04/06 05:17:02;;;;;;;;;;;;;;;;;;5051787;28;20353;-84
2024/04/06 05:19:29;;;;;;;;;;;;;;;;;;5056997;28;20055;-85
2024/04/06 05:21:55;;;;;;;;;;;;;;;;;;5057074;28;20058;-85
2024/04/06 05:24:22;;;;;;;;;;;;;;;;;;5057551;28;20383;-86
2024/04/06 05:26:47;;;;;;;;;;;;;;;;;;5057870;28;19971;-85
2024/04/06 05:29:14;;;;;;;;;;;;;;;;;;5059398;28;20030;-85
2024/04/06 05:31:40;;;;;;;;;;;;;;;;;;5057847;28;19976;-85
2024/04/06 05:34:07;;;;;;;;;;;;;;;;;;5055427;28;19999;-85
2024/04/06 05:36:33;;;;;;;;;;;;;;;;;;5054663;28;19979;-84
2024/04/06 05:39:00;;;;;;;;;;;;;;;;;;5053995;28;20023;-85
2024/04/06 05:41:26;;;;;;;;;;;;;;;;;;5053656;28;20062;-86
2024/04/06 05:43:53;;;;;;;;;;;;;;;;;;5054597;28;20000;-85
2024/04/06 05:46:19;;;;;;;;;;;;;;;;;;5056746;28;19972;-87
2024/04/06 05:48:46;;;;;;;;;;;;;;;;;;5048964;28;19978;-87
2024/04/06 05:51:12;;;;;;;;;;;;;;;;;;5058271;28;20059;-86
2024/04/06 05:53:40;;;;;;;;;;;;;;;;;;5059527;28;19971;-86
2024/04/06 05:56:06;;;;;;;;;;;;;;;;;;5056851;28;19972;-87
2024/04/06 05:58:33;;;;;;;;;;;;;;;;;;5051383;28;19975;-87
2024/04/06 06:00:59;;;;;;;;;;;;;;;;;;5057651;28;19993;-85
2024/04/06 06:03:26;;;;;;;;;;;;;;;;;;5052242;28;20031;-85
2024/04/06 06:05:52;;;;;;;;;;;;;;;;;;5051428;28;20070;-86
2024/04/06 06:08:19;;;;;;;;;;;;;;;;;;5053615;28;19968;-85
2024/04/06 06:10:45;;;;;;;;;;;;;;;;;;5050610;28;19996;-86
2024/04/06 06:13:12;;;;;;;;;;;;;;;;;;5061910;28;19976;-85
2024/04/06 06:15:37;;;;;;;;;;;;;;;;;;5050374;28;20066;-84
2024/04/06 06:18:04;;;;;;;;;;;;;;;;;;5057952;28;20010;-84
2024/04/06 06:20:30;;;;;;;;;;;;;;;;;;5058613;28;19998;-85
2024/04/06 06:22:58;;;;;;;;;;;;;;;;;;5056044;28;20019;-84
2024/04/06 06:25:24;;;;;;;;;;;;;;;;;;5050496;28;19983;-84
2024/04/06 06:27:51;;;;;;;;;;;;;;;;;;5053755;28;19975;-84
2024/04/06 06:30:17;;;;;;;;;;;;;;;;;;5058332;28;20038;-86
2024/04/06 06:32:44;;;;;;;;;;;;;;;;;;5057384;28;19972;-85
2024/04/06 06:35:11;;;;;;;;;;;;;;;;;;5048487;28;20019;-84
2024/04/06 06:37:38;;;;;;;;;;;;;;;;;;5057133;28;19975;-86
2024/04/06 06:40:04;;;;;;;;;;;;;;;;;;5056858;28;20055;-84
2024/04/06 06:42:31;;;;;;;;;;;;;;;;;;5056919;28;20026;-85
2024/04/06 06:44:57;;;;;;;;;;;;;;;;;;5056377;28;20015;-84
2024/04/06 06:47:24;;;;;;;;;;;;;;;;;;5056419;28;19990;-84
2024/04/06 06:49:50;;;;;;;;;;;;;;;;;;5054020;28;19997;-85
2024/04/06 06:52:17;;;;;;;;;;;;;;;;;;5055891;28;19975;-84
2024/04/06 06:54:43;;;;;;;;;;;;;;;;;;5057506;28;20550;-86
2024/04/06 06:57:10;;;;;;;;;;;;;;;;;;5059641;28;20026;-82
2024/04/06 06:59:36;;;;;;;;;;;;;;;;;;5054034;28;20480;-84
2024/04/06 07:02:03;;;;;;;;;;;;;;;;;;5062665;28;20039;-85
2024/04/06 07:04:29;;;;;;;;;;;;;;;;;;5061880;28;19943;-84
2024/04/06 07:06:56;;;;;;;;;;;;;;;;;;5061678;28;19998;-85
2024/04/06 07:09:22;;;;;;;;;;;;;;;;;;5062302;28;19959;-86
2024/04/06 07:11:49;;;;;;;;;;;;;;;;;;5062556;28;20318;-84
2024/04/06 07:14:15;;;;;;;;;;;;;;;;;;5062232;28;20026;-84
2024/04/06 07:16:42;;;;;;;;;;;;;;;;;;5063415;28;20003;-84
2024/04/06 07:19:09;;;;;;;;;;;;;;;;;;5063143;28;20079;-83
2024/04/06 07:21:36;;;;;;;;;;;;;;;;;;5062732;28;19993;-85
2024/04/06 07:24:02;;;;;;;;;;;;;;;;;;5058437;28;19975;-83
2024/04/06 07:26:29;;;;;;;;;;;;;;;;;;5063842;28;19976;-86
2024/04/06 07:28:56;;;;;;;;;;;;;;;;;;5062033;28;19982;-84
2024/04/06 07:31:23;;;;;;;;;;;;;;;;;;5062753;28;19973;-83
2024/04/06 07:33:49;;;;;;;;;;;;;;;;;;5064356;28;19981;-83
2024/04/06 07:36:16;;;;;;;;;;;;;;;;;;5060542;28;19971;-84
2024/04/06 07:38:42;;;;;;;;;;;;;;;;;;5062898;28;19976;-84
2024/04/06 07:41:09;;;;;;;;;;;;;;;;;;5062231;28;20047;-85
2024/04/06 07:43:35;;;;;;;;;;;;;;;;;;5060075;28;20019;-84
2024/04/06 07:46:02;;;;;;;;;;;;;;;;;;5064621;28;19939;-83
2024/04/06 07:48:28;;;;;;;;;;;;;;;;;;5062578;28;20022;-83
2024/04/06 07:50:55;;;;;;;;;;;;;;;;;;5060154;28;20192;-83
2024/04/06 07:53:23;;;;;;;;;;;;;;;;;;5063043;28;20030;-85
2024/04/06 07:55:50;;;;;;;;;;;;;;;;;;5063368;28;19972;-84
2024/04/06 07:58:16;;;;;;;;;;;;;;;;;;5063944;28;20063;-85
2024/04/06 08:00:43;;;;;;;;;;;;;;;;;;5063695;28;19996;-84
2024/04/06 08:03:09;;;;;;;;;;;;;;;;;;5060724;28;20044;-85
2024/04/06 08:05:36;;;;;;;;;;;;;;;;;;5064146;28;19973;-85
2024/04/06 08:08:03;;;;;;;;;;;;;;;;;;5061759;28;20079;-83
2024/04/06 08:10:30;;;;;;;;;;;;;;;;;;5061670;28;20456;-83
2024/04/06 08:12:56;;;;;;;;;;;;;;;;;;5064583;28;20061;-83
2024/04/06 08:15:22;;;;;;;;;;;;;;;;;;5063606;28;19976;-81
2024/04/06 08:17:48;;;;;;;;;;;;;;;;;;5064458;28;20076;-83
2024/04/06 08:20:16;;;;;;;;;;;;;;;;;;5064155;28;19921;-83
2024/04/06 08:22:42;;;;;;;;;;;;;;;;;;5064406;28;20319;-83
2024/04/06 08:25:09;;;;;;;;;;;;;;;;;;5057495;28;20014;-82
2024/04/06 08:27:35;;;;;;;;;;;;;;;;;;5064654;28;20063;-84
2024/04/06 08:30:04;;;;;;;;;;;;;;;;;;5064781;28;19989;-84
2024/04/06 08:32:30;;;;;;;;;;;;;;;;;;5065873;28;20051;-82
2024/04/06 08:34:57;;;;;;;;;;;;;;;;;;5065981;28;19975;-82
2024/04/06 08:37:23;;;;;;;;;;;;;;;;;;5065780;28;20090;-84
2024/04/06 08:39:50;;;;;;;;;;;;;;;;;;5065126;28;19995;-85
2024/04/06 08:42:16;;;;;;;;;;;;;;;;;;5062238;28;20086;-84
2024/04/06 08:44:43;;;;;;;;;;;;;;;;;;5062733;28;19976;-84
2024/04/06 08:47:09;;;;;;;;;;;;;;;;;;5065253;28;20007;-84
2024/04/06 08:49:36;;;;;;;;;;;;;;;;;;5062974;28;19999;-83
2024/04/06 08:52:02;;;;;;;;;;;;;;;;;;5066486;28;19981;-83
2024/04/06 08:54:29;;;;;;;;;;;;;;;;;;5067961;28;19999;-85
2024/04/06 08:56:55;;;;;;;;;;;;;;;;;;5066071;28;19980;-84
2024/04/06 08:59:23;;;;;;;;;;;;;;;;;;5068322;28;20001;-84
2024/04/06 09:01:49;;;;;;;;;;;;;;;;;;5063127;28;19988;-84
2024/04/06 09:04:16;;;;;;;;;;;;;;;;;;5067727;28;19999;-85
2024/04/06 09:06:42;;;;;;;;;;;;;;;;;;5067267;28;20046;-85
2024/04/06 09:09:10;;;;;;;;;;;;;;;;;;5068847;28;19992;-85
2024/04/06 09:11:36;;;;;;;;;;;;;;;;;;5067473;28;19988;-86
2024/04/06 09:14:03;;;;;;;;;;;;;;;;;;5067245;28;20457;-85
2024/04/06 09:16:29;;;;;;;;;;;;;;;;;;5067434;28;20008;-85
2024/04/06 09:18:56;;;;;;;;;;;;;;;;;;5067981;28;20086;-83
2024/04/06 09:21:22;;;;;;;;;;;;;;;;;;5067034;28;19999;-83
2024/04/06 09:23:49;;;;;;;;;;;;;;;;;;5067474;28;19977;-85
2024/04/06 09:26:15;;;;;;;;;;;;;;;;;;5067672;28;20015;-85
2024/04/06 09:28:42;;;;;;;;;;;;;;;;;;5066634;28;19972;-85
2024/04/06 09:31:10;;;;;;;;;;;;;;;;;;5059705;28;20023;-83
2024/04/06 09:33:37;;;;;;;;;;;;;;;;;;5067069;28;19979;-84
2024/04/06 09:36:03;;;;;;;;;;;;;;;;;;5067237;28;19952;-85
2024/04/06 09:38:30;;;;;;;;;;;;;;;;;;5059997;28;19920;-87
2024/04/06 09:40:56;;;;;;;;;;;;;;;;;;5066844;28;19967;-84
2024/04/06 09:43:23;;;;;;;;;;;;;;;;;;5066942;28;19985;-84
2024/04/06 09:45:49;;;;;;;;;;;;;;;;;;5065758;28;19981;-86
2024/04/06 09:48:16;;;;;;;;;;;;;;;;;;5062191;28;20403;-86
2024/04/06 09:50:42;;;;;;;;;;;;;;;;;;5062348;28;20021;-85
2024/04/06 09:53:12;;;;;;;;;;;;;;;;;;5064251;28;19961;-85
2024/04/06 09:55:38;;;;;;;;;;;;;;;;;;5065529;28;20057;-87
2024/04/06 09:58:05;;;;;;;;;;;;;;;;;;5064063;28;19967;-85
2024/04/06 10:00:31;;;;;;;;;;;;;;;;;;5065762;28;20056;-85
2024/04/06 10:02:58;;;;;;;;;;;;;;;;;;5058215;28;19975;-84
2024/04/06 10:05:25;;;;;;;;;;;;;;;;;;5059752;28;20051;-85
2024/04/06 10:07:52;;;;;;;;;;;;;;;;;;5055952;28;19994;-86
2024/04/06 10:10:19;;;;;;;;;;;;;;;;;;5066609;28;20030;-87
2024/04/06 10:12:45;;;;;;;;;;;;;;;;;;5066231;28;19997;-84
2024/04/06 10:15:12;;;;;;;;;;;;;;;;;;5064464;28;19989;-86
2024/04/06 10:17:38;;;;;;;;;;;;;;;;;;5064465;28;20041;-87
2024/04/06 10:20:06;;;;;;;;;;;;;;;;;;5065190;28;19986;-88
2024/04/06 10:22:32;;;;;;;;;;;;;;;;;;5064304;28;20077;-86
2024/04/06 10:24:59;;;;;;;;;;;;;;;;;;5064090;28;20020;-86
2024/04/06 10:27:25;;;;;;;;;;;;;;;;;;5066867;28;20006;-86
2024/04/06 10:29:52;;;;;;;;;;;;;;;;;;5070685;28;20386;-86
2024/04/06 10:32:18;;;;;;;;;;;;;;;;;;5069733;28;19973;-87
2024/04/06 10:34:45;;;;;;;;;;;;;;;;;;5071061;28;20036;-85
2024/04/06 10:37:11;;;;;;;;;;;;;;;;;;5069818;28;20006;-84
2024/04/06 10:39:38;;;;;;;;;;;;;;;;;;5070663;28;19983;-86
2024/04/06 10:42:04;;;;;;;;;;;;;;;;;;5071565;28;20018;-85
2024/04/06 10:44:31;;;;;;;;;;;;;;;;;;5072032;28;19967;-83
2024/04/06 10:46:57;;;;;;;;;;;;;;;;;;5069980;28;19997;-84
2024/04/06 10:49:24;;;;;;;;;;;;;;;;;;5068563;28;19979;-82
2024/04/06 10:51:51;;;;;;;;;;;;;;;;;;5065998;28;20039;-85
2024/04/06 10:54:17;;;;;;;;;;;;;;;;;;5068222;28;19969;-81
2024/04/06 10:56:43;;;;;;;;;;;;;;;;;;5067108;28;20035;-84
2024/04/06 10:59:10;;;;;;;;;;;;;;;;;;5065020;28;20458;-83
2024/04/06 11:01:39;;;;;;;;;;;;;;;;;;5063560;28;20073;-84
2024/04/06 11:04:06;;;;;;;;;;;;;;;;;;5061861;28;19971;-83
2024/04/06 11:06:32;;;;;;;;;;;;;;;;;;5070026;28;20058;-83
2024/04/06 11:09:00;;;;;;;;;;;;;;;;;;5067798;28;19967;-83
2024/04/06 11:11:26;;;;;;;;;;;;;;;;;;5059622;28;19975;-84
2024/04/06 11:13:53;;;;;;;;;;;;;;;;;;5067999;28;19971;-84
2024/04/06 11:16:19;;;;;;;;;;;;;;;;;;5069527;28;20005;-83
2024/04/06 11:18:49;;;;;;;;;;;;;;;;;;5068672;28;19998;-83
2024/04/06 11:21:15;;;;;;;;;;;;;;;;;;5070569;28;20410;-84
2024/04/06 11:23:43;;;;;;;;;;;;;;;;;;5069621;28;19971;-83
2024/04/06 11:26:09;;;;;;;;;;;;;;;;;;5069908;28;20021;-82
2024/04/06 11:28:36;;;;;;;;;;;;;;;;;;5068990;28;19967;-85
2024/04/06 11:31:02;;;;;;;;;;;;;;;;;;5069068;28;20078;-83
2024/04/06 11:33:29;;;;;;;;;;;;;;;;;;5069206;28;19974;-83
2024/04/06 11:35:55;;;;;;;;;;;;;;;;;;5069813;28;20021;-83
2024/04/06 11:38:22;;;;;;;;;;;;;;;;;;5068369;28;19964;-80
2024/04/06 11:40:52;;;;;;;;;;;;;;;;;;5067487;28;20014;-81
2024/04/06 11:43:19;;;;;;;;;;;;;;;;;;5069037;28;19971;-82
2024/04/06 11:45:45;;;;;;;;;;;;;;;;;;5061539;28;20008;-80
2024/04/06 11:48:13;;;;;;;;;;;;;;;;;;5068752;28;19974;-83
2024/04/06 11:50:39;;;;;;;;;;;;;;;;;;5069480;28;19986;-83
2024/04/06 11:53:07;;;;;;;;;;;;;;;;;;5068574;28;19968;-84
2024/04/06 11:55:33;;;;;;;;;;;;;;;;;;5068116;28;19983;-81
2024/04/06 11:58:02;;;;;;;;;;;;;;;;;;5065975;28;19968;-82
2024/04/06 12:00:28;;;;;;;;;;;;;;;;;;5068575;28;20006;-83
2024/04/06 12:02:55;;;;;;;;;;;;;;;;;;5068839;28;20439;-85
2024/04/06 12:05:21;;;;;;;;;;;;;;;;;;5067386;28;20063;-81
2024/04/06 12:07:48;;;;;;;;;;;;;;;;;;5063528;28;19990;-83
2024/04/06 12:10:14;;;;;;;;;;;;;;;;;;5066401;28;20011;-84
2024/04/06 12:12:41;;;;;;;;;;;;;;;;;;5065827;28;19964;-83
2024/04/06 12:15:07;;;;;;;;;;;;;;;;;;5068143;28;20018;-82
2024/04/06 12:17:34;;;;;;;;;;;;;;;;;;5065747;28;19972;-81
2024/04/06 12:20:00;;;;;;;;;;;;;;;;;;5057537;28;19984;-82
2024/04/06 12:22:27;;;;;;;;;;;;;;;;;;5068206;28;20019;-82
2024/04/06 12:24:53;;;;;;;;;;;;;;;;;;5065837;28;19999;-83
2024/04/06 12:27:20;;;;;;;;;;;;;;;;;;5047981;28;19983;-83
2024/04/06 12:29:46;;;;;;;;;;;;;;;;;;5066184;28;20020;-81
2024/04/06 12:32:13;;;;;;;;;;;;;;;;;;5060516;28;19991;-82
2024/04/06 12:34:39;;;;;;;;;;;;;;;;;;5070988;28;20008;-84
2024/04/06 12:37:09;;;;;;;;;;;;;;;;;;5068264;28;19971;-83
2024/04/06 12:39:35;;;;;;;;;;;;;;;;;;5070430;28;19988;-86
2024/04/06 12:42:03;;;;;;;;;;;;;;;;;;5068477;28;19999;-84
2024/04/06 12:44:29;;;;;;;;;;;;;;;;;;5059279;28;19972;-84
2024/04/06 12:46:56;;;;;;;;;;;;;;;;;;5067317;28;19986;-84
2024/04/06 12:49:22;;;;;;;;;;;;;;;;;;5061374;28;20019;-82
2024/04/06 12:51:48;;;;;;;;;;;;;;;;;;5055268;28;20349;-82
2024/04/06 12:54:15;;;;;;;;;;;;;;;;;;5064296;28;20051;-82
2024/04/06 12:59:22;;;;;;;;;;;;;;;;;;5065901;28;19988;-83
2024/04/06 13:01:48;;;;;;;;;;;;;;;;;;5062133;28;20063;-81
2024/04/06 13:04:15;;;;;;;;;;;;;;;;;;5066334;28;19970;-82
2024/04/06 13:06:42;;;;;;;;;;;;;;;;;;5065011;28;20033;-82
2024/04/06 13:09:08;;;;;;;;;;;;;;;;;;5067299;28;19994;-81
2024/04/06 13:11:35;;;;;;;;;;;;;;;;;;5069731;28;19974;-84
2024/04/06 13:14:01;;;;;;;;;;;;;;;;;;5057862;28;20023;-82
2024/04/06 13:16:28;;;;;;;;;;;;;;;;;;5065212;28;19976;-83
2024/04/06 13:18:55;;;;;;;;;;;;;;;;;;5067442;28;20007;-84
2024/04/06 13:21:22;;;;;;;;;;;;;;;;;;5068543;28;19992;-80
2024/04/06 13:23:48;;;;;;;;;;;;;;;;;;5067596;28;20028;-82
2024/04/06 13:26:15;;;;;;;;;;;;;;;;;;5068858;28;19970;-82
2024/04/06 13:28:41;;;;;;;;;;;;;;;;;;5065144;28;19979;-79
2024/04/06 13:31:09;;;;;;;;;;;;;;;;;;5069770;28;19980;-83
2024/04/06 13:33:35;;;;;;;;;;;;;;;;;;5059089;28;19976;-86
2024/04/06 13:36:03;;;;;;;;;;;;;;;;;;5068114;28;19978;-81
2024/04/06 13:38:29;;;;;;;;;;;;;;;;;;5059850;28;19988;-83
2024/04/06 13:40:56;;;;;;;;;;;;;;;;;;5068219;28;20019;-84
2024/04/06 13:43:22;;;;;;;;;;;;;;;;;;5068513;28;20030;-81
2024/04/06 13:45:49;;;;;;;;;;;;;;;;;;5068268;28;19967;-81
2024/04/06 13:48:15;;;;;;;;;;;;;;;;;;5062804;28;20039;-83
2024/04/06 13:50:42;;;;;;;;;;;;;;;;;;5064431;28;20003;-82
2024/04/06 13:53:08;;;;;;;;;;;;;;;;;;5067456;28;20030;-80
2024/04/06 13:55:35;;;;;;;;;;;;;;;;;;5055614;28;20505;-81
2024/04/06 13:58:00;;;;;;;;;;;;;;;;;;5054679;28;20066;-82
2024/04/06 14:00:27;;;;;;;;;;;;;;;;;;5065620;28;19999;-81
2024/04/06 14:02:53;;;;;;;;;;;;;;;;;;5061299;28;20082;-82
2024/04/06 14:05:20;;;;;;;;;;;;;;;;;;5060838;28;19975;-84
2024/04/06 14:07:48;;;;;;;;;;;;;;;;;;5065161;28;20066;-83
2024/04/06 14:10:15;;;;;;;;;;;;;;;;;;5061504;28;19991;-81
2024/04/06 14:12:41;;;;;;;;;;;;;;;;;;5052665;28;19987;-81
2024/04/06 14:15:08;;;;;;;;;;;;;;;;;;5062681;28;19976;-81
2024/04/06 14:17:34;;;;;;;;;;;;;;;;;;5055147;28;20457;-78
2024/04/06 14:20:02;;;;;;;;;;;;;;;;;;5062976;28;20018;-80
2024/04/06 14:22:28;;;;;;;;;;;;;;;;;;5055469;28;19991;-81
2024/04/06 14:24:55;;;;;;;;;;;;;;;;;;5056734;28;19975;-83
2024/04/06 14:27:22;;;;;;;;;;;;;;;;;;5063268;28;20062;-81
2024/04/06 14:29:48;;;;;;;;;;;;;;;;;;5065825;28;20428;-82
2024/04/06 14:32:14;;;;;;;;;;;;;;;;;;5065904;28;19975;-79
2024/04/06 14:34:40;;;;;;;;;;;;;;;;;;5057097;28;20015;-82
2024/04/06 14:37:07;;;;;;;;;;;;;;;;;;5067466;28;19982;-84
2024/04/06 14:39:33;;;;;;;;;;;;;;;;;;5068597;28;19991;-82
2024/04/06 14:42:00;;;;;;;;;;;;;;;;;;5065281;28;19995;-82
2024/04/06 14:44:26;;;;;;;;;;;;;;;;;;5057064;28;20368;-83
2024/04/06 14:46:53;;;;;;;;;;;;;;;;;;5064079;28;20019;-84
2024/04/06 14:49:19;;;;;;;;;;;;;;;;;;5061843;28;20453;-82
2024/04/06 14:51:46;;;;;;;;;;;;;;;;;;5061359;28;20058;-82
2024/04/06 14:54:12;;;;;;;;;;;;;;;;;;5064501;28;20437;-83
2024/04/06 14:56:39;;;;;;;;;;;;;;;;;;5060609;28;19976;-83
2024/04/06 14:59:05;;;;;;;;;;;;;;;;;;5066343;28;20327;-83
2024/04/06 15:01:32;;;;;;;;;;;;;;;;;;5067056;28;19996;-84
2024/04/06 15:03:58;;;;;;;;;;;;;;;;;;5062303;28;20014;-79
2024/04/06 15:06:25;;;;;;;;;;;;;;;;;;5072227;28;19972;-82
2024/04/06 15:08:50;;;;;;;;;;;;;;;;;;5070176;28;20412;-82
2024/04/06 15:11:19;;;;;;;;;;;;;;;;;;5072440;28;20055;-83
2024/04/06 15:13:44;;;;;;;;;;;;;;;;;;5070398;28;19979;-80
2024/04/06 15:16:11;;;;;;;;;;;;;;;;;;5067277;28;19971;-82
2024/04/06 15:18:37;;;;;;;;;;;;;;;;;;5052932;28;20283;-82
2024/04/06 15:21:04;;;;;;;;;;;;;;;;;;5053017;28;19988;-85
2024/04/06 15:23:30;;;;;;;;;;;;;;;;;;5064368;28;20058;-84
2024/04/06 15:25:57;;;;;;;;;;;;;;;;;;5015979;28;20459;-82
2024/04/06 15:28:23;;;;;;;;;;;;;;;;;;5064879;28;20015;-80
2024/04/06 15:30:50;;;;;;;;;;;;;;;;;;5053107;28;19990;-80
2024/04/06 15:33:16;;;;;;;;;;;;;;;;;;5066917;28;20066;-81
2024/04/06 15:35:43;;;;;;;;;;;;;;;;;;5034691;28;20011;-80
2024/04/06 15:38:09;;;;;;;;;;;;;;;;;;5053623;28;20006;-79
2024/04/06 15:40:37;;;;;;;;;;;;;;;;;;5072846;28;19991;-80
2024/04/06 15:43:03;;;;;;;;;;;;;;;;;;5061402;28;20008;-81
2024/04/06 15:45:30;;;;;;;;;;;;;;;;;;5024491;28;19972;-79
2024/04/06 15:47:58;;;;;;;;;;;;;;;;;;5046575;28;19975;-84
2024/04/06 15:50:25;;;;;;;;;;;;;;;;;;5051684;28;19987;-82
2024/04/06 15:52:51;;;;;;;;;;;;;;;;;;5042540;28;20411;-83
2024/04/06 15:55:18;;;;;;;;;;;;;;;;;;5058183;28;20009;-85
2024/04/06 15:57:44;;;;;;;;;;;;;;;;;;5050572;28;20485;-81
2024/04/06 16:00:11;;;;;;;;;;;;;;;;;;5067124;28;19996;-80
2024/04/06 16:02:37;;;;;;;;;;;;;;;;;;5064958;28;20001;-84
2024/04/06 16:05:04;;;;;;;;;;;;;;;;;;5064924;28;19979;-85
2024/04/06 16:07:30;;;;;;;;;;;;;;;;;;5062374;28;20022;-83
2024/04/06 16:09:57;;;;;;;;;;;;;;;;;;5062448;28;19991;-82
2024/04/06 16:12:23;;;;;;;;;;;;;;;;;;5064423;28;20082;-81
2024/04/06 16:14:50;;;;;;;;;;;;;;;;;;5065660;28;19976;-83
2024/04/06 16:17:16;;;;;;;;;;;;;;;;;;5058408;28;20065;-84
2024/04/06 16:19:43;;;;;;;;;;;;;;;;;;5061343;28;19990;-84
2024/04/06 16:22:09;;;;;;;;;;;;;;;;;;5057117;28;19996;-81
2024/04/06 16:24:36;;;;;;;;;;;;;;;;;;5061046;28;19997;-81
2024/04/06 16:27:03;;;;;;;;;;;;;;;;;;5059525;28;19978;-83
2024/04/06 16:29:30;;;;;;;;;;;;;;;;;;5060359;28;19994;-81
2024/04/06 16:31:56;;;;;;;;;;;;;;;;;;5059487;28;20497;-82
2024/04/06 16:34:23;;;;;;;;;;;;;;;;;;5059526;28;20024;-80
2024/04/06 16:36:49;;;;;;;;;;;;;;;;;;5059067;28;19985;-82
2024/04/06 16:39:16;;;;;;;;;;;;;;;;;;5059891;28;19999;-81
2024/04/06 16:41:43;;;;;;;;;;;;;;;;;;5059716;28;20452;-81
2024/04/06 16:44:10;;;;;;;;;;;;;;;;;;5061405;28;19971;-81
2024/04/06 16:46:36;;;;;;;;;;;;;;;;;;5059656;28;19976;-82